SWA4576 KMCI-KMKE
Flight info
| Callsign | SWA4576 |
|---|---|
| Flight time | 1h 3m |
| Altitude | 35000 |
| Route | ROYAL2 BODYN JOT LEEDN GOPAC3 |
| Aircraft | B738/M-SDE2E3FGHIRWXY/LB1 |
Departure
| Time | 2026-04-28 19:07 |
|---|---|
| Airport | Kansas City International Airport (KMCI) |
Arrival
| Time | 2026-04-28 20:11 |
|---|---|
| Airport | General Mitchell International Airport (KMKE) |
| Time | Latitude | Longitude | Altitude | Speed | Heading |
|---|---|---|---|---|---|
| 2026-04-28 18:42 | 39.29479 | -94.72151 | 1020 ft | 0 kts | 99° |
| 2026-04-28 18:59 | 39.29480 | -94.72162 | 966 ft | 4 kts | 104° |
| 2026-04-28 18:59 | 39.29491 | -94.72189 | 1016 ft | 4 kts | 152° |
| 2026-04-28 18:59 | 39.29506 | -94.72195 | 1014 ft | 0 kts | 184° |
| 2026-04-28 19:03 | 39.29502 | -94.72196 | 1012 ft | 3 kts | 187° |
| 2026-04-28 19:04 | 39.29504 | -94.72248 | 1020 ft | 12 kts | 319° |
| 2026-04-28 19:04 | 39.29605 | -94.72340 | 1019 ft | 23 kts | 323° |
| 2026-04-28 19:04 | 39.29703 | -94.72481 | 1017 ft | 21 kts | 284° |
| 2026-04-28 19:04 | 39.29601 | -94.72578 | 1018 ft | 20 kts | 192° |
| 2026-04-28 19:05 | 39.29466 | -94.72617 | 1020 ft | 20 kts | 193° |
| 2026-04-28 19:05 | 39.29334 | -94.72653 | 1021 ft | 19 kts | 192° |
| 2026-04-28 19:05 | 39.29241 | -94.72742 | 1022 ft | 18 kts | 278° |
| 2026-04-28 19:05 | 39.29269 | -94.72796 | 1022 ft | 0 kts | 315° |
| 2026-04-28 19:06 | 39.29270 | -94.72797 | 1022 ft | 1 kts | 315° |
| 2026-04-28 19:06 | 39.29351 | -94.72899 | 1019 ft | 23 kts | 329° |
| 2026-04-28 19:06 | 39.29594 | -94.72853 | 1019 ft | 63 kts | 13° |
| 2026-04-28 19:07 | 39.30249 | -94.72661 | 1012 ft | 130 kts | 12° |
| 2026-04-28 19:07 | 39.31251 | -94.72362 | 1381 ft | 155 kts | 13° |
| 2026-04-28 19:07 | 39.32315 | -94.72047 | 2307 ft | 164 kts | 11° |
| 2026-04-28 19:07 | 39.33504 | -94.71689 | 3093 ft | 177 kts | 9° |
| 2026-04-28 19:08 | 39.34780 | -94.71281 | 3624 ft | 198 kts | 14° |
| 2026-04-28 19:08 | 39.36013 | -94.70671 | 4640 ft | 191 kts | 34° |
| 2026-04-28 19:08 | 39.36976 | -94.69338 | 5143 ft | 218 kts | 52° |
| 2026-04-28 19:08 | 39.37962 | -94.67702 | 5332 ft | 242 kts | 51° |
| 2026-04-28 19:09 | 39.39054 | -94.65994 | 5770 ft | 255 kts | 50° |
| 2026-04-28 19:09 | 39.40231 | -94.64211 | 6305 ft | 266 kts | 49° |
| 2026-04-28 19:09 | 39.41511 | -94.62326 | 6613 ft | 289 kts | 48° |
| 2026-04-28 19:09 | 39.42885 | -94.60353 | 7340 ft | 295 kts | 47° |
| 2026-04-28 19:10 | 39.44258 | -94.58406 | 8246 ft | 299 kts | 46° |
| 2026-04-28 19:10 | 39.45682 | -94.56404 | 9047 ft | 305 kts | 46° |
| 2026-04-28 19:10 | 39.47139 | -94.54370 | 9871 ft | 310 kts | 45° |
| 2026-04-28 19:10 | 39.48627 | -94.52295 | 10444 ft | 322 kts | 45° |
| 2026-04-28 19:11 | 39.50219 | -94.50084 | 10628 ft | 348 kts | 45° |
| 2026-04-28 19:11 | 39.51923 | -94.47720 | 10915 ft | 367 kts | 45° |
| 2026-04-28 19:11 | 39.53691 | -94.45265 | 11480 ft | 376 kts | 45° |
| 2026-04-28 19:11 | 39.55470 | -94.42794 | 12168 ft | 381 kts | 45° |
| 2026-04-28 19:12 | 39.57296 | -94.40257 | 12877 ft | 387 kts | 45° |
| 2026-04-28 19:12 | 39.59153 | -94.37675 | 13578 ft | 394 kts | 45° |
| 2026-04-28 19:12 | 39.61043 | -94.35049 | 14270 ft | 400 kts | 45° |
| 2026-04-28 19:12 | 39.62957 | -94.32386 | 14885 ft | 407 kts | 45° |
| 2026-04-28 19:13 | 39.64884 | -94.29702 | 15504 ft | 415 kts | 45° |
| 2026-04-28 19:13 | 39.66867 | -94.26939 | 16153 ft | 421 kts | 45° |
| 2026-04-28 19:13 | 39.68888 | -94.24119 | 16760 ft | 429 kts | 45° |
| 2026-04-28 19:13 | 39.70943 | -94.21249 | 17359 ft | 437 kts | 45° |
| 2026-04-28 19:14 | 39.73031 | -94.18330 | 17996 ft | 444 kts | 45° |
| 2026-04-28 19:14 | 39.75154 | -94.15360 | 18579 ft | 450 kts | 45° |
| 2026-04-28 19:14 | 39.77283 | -94.12398 | 19174 ft | 456 kts | 45° |
| 2026-04-28 19:14 | 39.79537 | -94.09456 | 19756 ft | 460 kts | 43° |
| 2026-04-28 19:15 | 39.81859 | -94.06543 | 20371 ft | 464 kts | 42° |
| 2026-04-28 19:15 | 39.84207 | -94.03623 | 20955 ft | 468 kts | 42° |
| 2026-04-28 19:15 | 39.86539 | -94.00707 | 21513 ft | 472 kts | 42° |
| 2026-04-28 19:15 | 39.88138 | -93.98691 | 21874 ft | 475 kts | 42° |
| 2026-04-28 19:16 | 39.91304 | -93.94668 | 22595 ft | 481 kts | 43° |
| 2026-04-28 19:16 | 39.93709 | -93.91594 | 23140 ft | 485 kts | 43° |
| 2026-04-28 19:16 | 39.96096 | -93.88537 | 23648 ft | 490 kts | 43° |
| 2026-04-28 19:16 | 39.98544 | -93.85402 | 24082 ft | 494 kts | 43° |
| 2026-04-28 19:17 | 40.01011 | -93.82242 | 24532 ft | 497 kts | 43° |
| 2026-04-28 19:17 | 40.03488 | -93.79065 | 24991 ft | 500 kts | 43° |
| 2026-04-28 19:17 | 40.05979 | -93.75866 | 25440 ft | 503 kts | 42° |
| 2026-04-28 19:17 | 40.08447 | -93.72695 | 25867 ft | 506 kts | 42° |
| 2026-04-28 19:18 | 40.10942 | -93.69394 | 26270 ft | 511 kts | 47° |
| 2026-04-28 19:18 | 40.13054 | -93.65617 | 26661 ft | 515 kts | 60° |
| 2026-04-28 19:18 | 40.14634 | -93.61465 | 27068 ft | 515 kts | 71° |
| 2026-04-28 19:18 | 40.15669 | -93.56998 | 27450 ft | 513 kts | 83° |
| 2026-04-28 19:19 | 40.16308 | -93.52381 | 27835 ft | 515 kts | 85° |
| 2026-04-28 19:19 | 40.16884 | -93.47751 | 28194 ft | 518 kts | 85° |
| 2026-04-28 19:19 | 40.17454 | -93.43077 | 28554 ft | 522 kts | 85° |
| 2026-04-28 19:19 | 40.18039 | -93.38380 | 28899 ft | 525 kts | 85° |
| 2026-04-28 19:20 | 40.18646 | -93.33656 | 29262 ft | 527 kts | 84° |
| 2026-04-28 19:20 | 40.19265 | -93.28964 | 29619 ft | 530 kts | 84° |
| 2026-04-28 19:20 | 40.19903 | -93.24193 | 29957 ft | 533 kts | 84° |
| 2026-04-28 19:20 | 40.20547 | -93.19406 | 30269 ft | 535 kts | 84° |
| 2026-04-28 19:21 | 40.21193 | -93.14604 | 30561 ft | 537 kts | 84° |
| 2026-04-28 19:21 | 40.21838 | -93.09781 | 30863 ft | 538 kts | 84° |
| 2026-04-28 19:21 | 40.22483 | -93.04941 | 31247 ft | 537 kts | 84° |
| 2026-04-28 19:21 | 40.23112 | -93.00196 | 31650 ft | 536 kts | 84° |
| 2026-04-28 19:22 | 40.23747 | -92.95380 | 32058 ft | 534 kts | 84° |
| 2026-04-28 19:22 | 40.24164 | -92.92209 | 32300 ft | 534 kts | 84° |
| 2026-04-28 19:22 | 40.24999 | -92.85823 | 32758 ft | 534 kts | 84° |
| 2026-04-28 19:22 | 40.25623 | -92.81025 | 33109 ft | 534 kts | 84° |
| 2026-04-28 19:23 | 40.26246 | -92.76225 | 33470 ft | 533 kts | 84° |
| 2026-04-28 19:23 | 40.26866 | -92.71437 | 33831 ft | 532 kts | 84° |
| 2026-04-28 19:23 | 40.27484 | -92.66648 | 34163 ft | 532 kts | 84° |
| 2026-04-28 19:23 | 40.28081 | -92.62006 | 34497 ft | 531 kts | 84° |
| 2026-04-28 19:24 | 40.28702 | -92.57166 | 34853 ft | 528 kts | 84° |
| 2026-04-28 19:24 | 40.29308 | -92.52416 | 35093 ft | 528 kts | 84° |
| 2026-04-28 19:24 | 40.30514 | -92.42924 | 35080 ft | 529 kts | 84° |
| 2026-04-28 19:25 | 40.31713 | -92.33426 | 35090 ft | 526 kts | 84° |
| 2026-04-28 19:25 | 40.32895 | -92.23993 | 35099 ft | 527 kts | 84° |
| 2026-04-28 19:26 | 40.34157 | -92.14514 | 35099 ft | 530 kts | 79° |
| 2026-04-28 19:26 | 40.36717 | -92.05423 | 35111 ft | 532 kts | 67° |
| 2026-04-28 19:27 | 40.39789 | -91.96594 | 35090 ft | 531 kts | 66° |
| 2026-04-28 19:27 | 40.42826 | -91.87814 | 35091 ft | 529 kts | 67° |
| 2026-04-28 19:28 | 40.45806 | -91.78984 | 35080 ft | 529 kts | 68° |
| 2026-04-28 19:28 | 40.48742 | -91.70160 | 35071 ft | 530 kts | 68° |
| 2026-04-28 19:29 | 40.51208 | -91.62718 | 35056 ft | 530 kts | 68° |
| 2026-04-28 19:29 | 40.54633 | -91.52366 | 35049 ft | 531 kts | 68° |
| 2026-04-28 19:30 | 40.57574 | -91.43456 | 35042 ft | 529 kts | 68° |
| 2026-04-28 19:30 | 40.60479 | -91.34627 | 35030 ft | 528 kts | 68° |
| 2026-04-28 19:31 | 40.63390 | -91.25754 | 35034 ft | 527 kts | 68° |
| 2026-04-28 19:31 | 40.66274 | -91.16933 | 35045 ft | 527 kts | 68° |
| 2026-04-28 19:32 | 40.69169 | -91.08048 | 35050 ft | 527 kts | 68° |
| 2026-04-28 19:32 | 40.72065 | -90.99131 | 35052 ft | 528 kts | 68° |
| 2026-04-28 19:33 | 40.74937 | -90.90261 | 35060 ft | 529 kts | 68° |
| 2026-04-28 19:33 | 40.77836 | -90.81276 | 35076 ft | 532 kts | 68° |
| 2026-04-28 19:34 | 40.80719 | -90.72312 | 35076 ft | 534 kts | 68° |
| 2026-04-28 19:34 | 40.83621 | -90.63261 | 35071 ft | 535 kts | 68° |
| 2026-04-28 19:35 | 40.86520 | -90.54191 | 35057 ft | 535 kts | 68° |
| 2026-04-28 19:35 | 40.89399 | -90.45153 | 35056 ft | 535 kts | 69° |
| 2026-04-28 19:36 | 40.92284 | -90.36063 | 35059 ft | 535 kts | 69° |
| 2026-04-28 19:36 | 40.95143 | -90.27025 | 35058 ft | 535 kts | 69° |
| 2026-04-28 19:37 | 40.97521 | -90.19486 | 35064 ft | 532 kts | 69° |
| 2026-04-28 19:37 | 41.00844 | -90.08915 | 35078 ft | 530 kts | 69° |
| 2026-04-28 19:38 | 41.03656 | -89.99939 | 35183 ft | 530 kts | 69° |
| 2026-04-28 19:38 | 41.06509 | -89.90800 | 35112 ft | 543 kts | 66° |
| 2026-04-28 19:39 | 41.09397 | -89.81521 | 35090 ft | 548 kts | 66° |
| 2026-04-28 19:39 | 41.12304 | -89.72140 | 35084 ft | 549 kts | 66° |
| 2026-04-28 19:40 | 41.15191 | -89.62794 | 35076 ft | 549 kts | 66° |
| 2026-04-28 19:40 | 41.18077 | -89.53418 | 35067 ft | 547 kts | 66° |
| 2026-04-28 19:41 | 41.20941 | -89.44080 | 35062 ft | 545 kts | 66° |
| 2026-04-28 19:41 | 41.23315 | -89.36316 | 35056 ft | 544 kts | 66° |
| 2026-04-28 19:42 | 41.26156 | -89.26996 | 35058 ft | 542 kts | 66° |
| 2026-04-28 19:42 | 41.28966 | -89.17744 | 35053 ft | 541 kts | 66° |
| 2026-04-28 19:43 | 41.31759 | -89.08517 | 35054 ft | 540 kts | 66° |
| 2026-04-28 19:43 | 41.34559 | -88.99231 | 35061 ft | 539 kts | 66° |
| 2026-04-28 19:44 | 41.37352 | -88.89939 | 35056 ft | 540 kts | 66° |
| 2026-04-28 19:44 | 41.40120 | -88.80698 | 35051 ft | 540 kts | 66° |
| 2026-04-28 19:45 | 41.42899 | -88.71384 | 35050 ft | 541 kts | 66° |
| 2026-04-28 19:45 | 41.45675 | -88.62047 | 35047 ft | 541 kts | 66° |
| 2026-04-28 19:46 | 41.48444 | -88.52703 | 35044 ft | 542 kts | 66° |
| 2026-04-28 19:46 | 41.51211 | -88.43408 | 35033 ft | 541 kts | 62° |
| 2026-04-28 19:47 | 41.53150 | -88.39170 | 34857 ft | 532 kts | 44° |
| 2026-04-28 19:47 | 41.55795 | -88.35825 | 34385 ft | 512 kts | 26° |
| 2026-04-28 19:47 | 41.58818 | -88.33479 | 33641 ft | 495 kts | 12° |
| 2026-04-28 19:47 | 41.62009 | -88.32001 | 32889 ft | 477 kts | 0° |
| 2026-04-28 19:48 | 41.65227 | -88.31459 | 32173 ft | 454 kts | 347° |
| 2026-04-28 19:48 | 41.68326 | -88.31516 | 31523 ft | 450 kts | 346° |
| 2026-04-28 19:48 | 41.71469 | -88.31588 | 30805 ft | 450 kts | 346° |
| 2026-04-28 19:48 | 41.74574 | -88.31728 | 30119 ft | 449 kts | 345° |
| 2026-04-28 19:49 | 41.77727 | -88.31933 | 29241 ft | 449 kts | 345° |
| 2026-04-28 19:49 | 41.80838 | -88.32152 | 28614 ft | 444 kts | 345° |
| 2026-04-28 19:49 | 41.83882 | -88.32363 | 28018 ft | 440 kts | 345° |
| 2026-04-28 19:49 | 41.86921 | -88.32567 | 27460 ft | 435 kts | 346° |
| 2026-04-28 19:50 | 41.92908 | -88.32957 | 26342 ft | 425 kts | 346° |
| 2026-04-28 19:50 | 41.95860 | -88.33146 | 25805 ft | 421 kts | 347° |
| 2026-04-28 19:50 | 41.98774 | -88.33332 | 25265 ft | 417 kts | 347° |
| 2026-04-28 19:51 | 42.01668 | -88.33518 | 24737 ft | 414 kts | 347° |
| 2026-04-28 19:51 | 42.04509 | -88.33701 | 24210 ft | 411 kts | 348° |
| 2026-04-28 19:51 | 42.07358 | -88.33885 | 23677 ft | 408 kts | 348° |
| 2026-04-28 19:51 | 42.10195 | -88.34067 | 23047 ft | 405 kts | 348° |
| 2026-04-28 19:52 | 42.12999 | -88.34247 | 22479 ft | 401 kts | 348° |
| 2026-04-28 19:52 | 42.15778 | -88.34424 | 21950 ft | 397 kts | 348° |
| 2026-04-28 19:52 | 42.18502 | -88.34599 | 21415 ft | 393 kts | 348° |
| 2026-04-28 19:52 | 42.21222 | -88.34774 | 20904 ft | 389 kts | 348° |
| 2026-04-28 19:53 | 42.23918 | -88.34947 | 20382 ft | 385 kts | 348° |
| 2026-04-28 19:53 | 42.26579 | -88.35179 | 20076 ft | 376 kts | 346° |
| 2026-04-28 19:53 | 42.29170 | -88.35499 | 19691 ft | 372 kts | 345° |
| 2026-04-28 19:53 | 42.31708 | -88.35825 | 19244 ft | 368 kts | 346° |
| 2026-04-28 19:54 | 42.34262 | -88.36141 | 18751 ft | 367 kts | 346° |
| 2026-04-28 19:54 | 42.36799 | -88.36456 | 18257 ft | 364 kts | 345° |
| 2026-04-28 19:54 | 42.39284 | -88.36856 | 17698 ft | 361 kts | 344° |
| 2026-04-28 19:54 | 42.41764 | -88.37301 | 17174 ft | 359 kts | 344° |
| 2026-04-28 19:55 | 42.44242 | -88.37751 | 16661 ft | 356 kts | 344° |
| 2026-04-28 19:55 | 42.46698 | -88.38191 | 16161 ft | 355 kts | 345° |
| 2026-04-28 19:55 | 42.49143 | -88.38620 | 15665 ft | 353 kts | 345° |
| 2026-04-28 19:55 | 42.51583 | -88.39044 | 15169 ft | 352 kts | 346° |
| 2026-04-28 19:56 | 42.54007 | -88.39463 | 14681 ft | 350 kts | 346° |
| 2026-04-28 19:56 | 42.56398 | -88.39877 | 14281 ft | 347 kts | 346° |
| 2026-04-28 19:56 | 42.58751 | -88.40284 | 14173 ft | 336 kts | 346° |
| 2026-04-28 19:56 | 42.61052 | -88.40686 | 14022 ft | 332 kts | 346° |
| 2026-04-28 19:57 | 42.63332 | -88.41087 | 13868 ft | 326 kts | 346° |
| 2026-04-28 19:57 | 42.65546 | -88.41472 | 13722 ft | 314 kts | 346° |
| 2026-04-28 19:57 | 42.67680 | -88.41843 | 13584 ft | 305 kts | 346° |
| 2026-04-28 19:57 | 42.69754 | -88.42251 | 13304 ft | 303 kts | 344° |
| 2026-04-28 19:58 | 42.71829 | -88.42750 | 13010 ft | 302 kts | 343° |
| 2026-04-28 19:58 | 42.73911 | -88.43196 | 12663 ft | 306 kts | 351° |
| 2026-04-28 19:58 | 42.76046 | -88.42960 | 12357 ft | 311 kts | 4° |
| 2026-04-28 19:58 | 42.78178 | -88.42441 | 12018 ft | 311 kts | 5° |
| 2026-04-28 19:59 | 42.80254 | -88.41562 | 11653 ft | 320 kts | 25° |
| 2026-04-28 19:59 | 42.81950 | -88.39586 | 11331 ft | 323 kts | 50° |
| 2026-04-28 19:59 | 42.82956 | -88.36874 | 11008 ft | 318 kts | 69° |
| 2026-04-28 19:59 | 42.83643 | -88.34079 | 10697 ft | 311 kts | 70° |
| 2026-04-28 20:00 | 42.84314 | -88.31306 | 10373 ft | 305 kts | 70° |
| 2026-04-28 20:00 | 42.84985 | -88.28584 | 10179 ft | 298 kts | 69° |
| 2026-04-28 20:00 | 42.85515 | -88.25863 | 10048 ft | 297 kts | 80° |
| 2026-04-28 20:00 | 42.85762 | -88.23048 | 9801 ft | 307 kts | 84° |
| 2026-04-28 20:01 | 42.85933 | -88.20124 | 9480 ft | 311 kts | 85° |
| 2026-04-28 20:01 | 42.86096 | -88.17197 | 9149 ft | 306 kts | 84° |
| 2026-04-28 20:01 | 42.86260 | -88.14353 | 8832 ft | 299 kts | 84° |
| 2026-04-28 20:01 | 42.86432 | -88.11581 | 8536 ft | 287 kts | 84° |
| 2026-04-28 20:02 | 42.86604 | -88.08917 | 8232 ft | 275 kts | 83° |
| 2026-04-28 20:02 | 42.86774 | -88.06369 | 7944 ft | 265 kts | 83° |
| 2026-04-28 20:02 | 42.86939 | -88.03907 | 7698 ft | 258 kts | 83° |
| 2026-04-28 20:02 | 42.87106 | -88.01512 | 7425 ft | 253 kts | 84° |
| 2026-04-28 20:03 | 42.87267 | -87.99157 | 7185 ft | 246 kts | 83° |
| 2026-04-28 20:03 | 42.87427 | -87.96850 | 6942 ft | 241 kts | 83° |
| 2026-04-28 20:03 | 42.87579 | -87.94616 | 6705 ft | 237 kts | 82° |
| 2026-04-28 20:03 | 42.87730 | -87.92392 | 6493 ft | 230 kts | 83° |
| 2026-04-28 20:04 | 42.87874 | -87.90284 | 6371 ft | 215 kts | 82° |
| 2026-04-28 20:04 | 42.88009 | -87.88310 | 6303 ft | 205 kts | 82° |
| 2026-04-28 20:04 | 42.88139 | -87.86370 | 6243 ft | 211 kts | 82° |
| 2026-04-28 20:04 | 42.88277 | -87.84357 | 6155 ft | 213 kts | 83° |
| 2026-04-28 20:05 | 42.88411 | -87.82354 | 6024 ft | 209 kts | 82° |
| 2026-04-28 20:05 | 42.88595 | -87.80412 | 5786 ft | 211 kts | 73° |
| 2026-04-28 20:05 | 42.89063 | -87.78498 | 5561 ft | 207 kts | 65° |
| 2026-04-28 20:05 | 42.89617 | -87.76684 | 5195 ft | 206 kts | 62° |
| 2026-04-28 20:06 | 42.90286 | -87.74977 | 4922 ft | 198 kts | 56° |
| 2026-04-28 20:06 | 42.90959 | -87.73452 | 4733 ft | 186 kts | 48° |
| 2026-04-28 20:06 | 42.91932 | -87.72355 | 4404 ft | 180 kts | 26° |
| 2026-04-28 20:06 | 42.93116 | -87.71715 | 3859 ft | 186 kts | 8° |
| 2026-04-28 20:07 | 42.94361 | -87.71555 | 3509 ft | 174 kts | 353° |
| 2026-04-28 20:07 | 42.95115 | -87.71764 | 3319 ft | 162 kts | 333° |
| 2026-04-28 20:07 | 42.96288 | -87.72914 | 3048 ft | 157 kts | 306° |
| 2026-04-28 20:07 | 42.96863 | -87.74188 | 2854 ft | 157 kts | 291° |
| 2026-04-28 20:08 | 42.97206 | -87.75594 | 2696 ft | 152 kts | 280° |
| 2026-04-28 20:08 | 42.97283 | -87.77013 | 2598 ft | 152 kts | 264° |
| 2026-04-28 20:08 | 42.97081 | -87.78448 | 2528 ft | 154 kts | 257° |
| 2026-04-28 20:08 | 42.96798 | -87.79846 | 2273 ft | 153 kts | 253° |
| 2026-04-28 20:09 | 42.96474 | -87.81179 | 2084 ft | 143 kts | 252° |
| 2026-04-28 20:09 | 42.96164 | -87.82460 | 1830 ft | 141 kts | 253° |
| 2026-04-28 20:09 | 42.95863 | -87.83718 | 1611 ft | 139 kts | 253° |
| 2026-04-28 20:09 | 42.95557 | -87.84983 | 1383 ft | 146 kts | 252° |
| 2026-04-28 20:10 | 42.95234 | -87.86308 | 1148 ft | 146 kts | 254° |
| 2026-04-28 20:10 | 42.94916 | -87.87622 | 933 ft | 144 kts | 252° |
| 2026-04-28 20:10 | 42.94608 | -87.88878 | 741 ft | 131 kts | 255° |
| 2026-04-28 20:10 | 42.94356 | -87.89937 | 684 ft | 94 kts | 252° |
| 2026-04-28 20:11 | 42.94211 | -87.90535 | 683 ft | 48 kts | 251° |
| 2026-04-28 20:11 | 42.94220 | -87.90733 | 685 ft | 15 kts | 333° |
| 2026-04-28 20:11 | 42.94293 | -87.90669 | 683 ft | 14 kts | 71° |
| 2026-04-28 20:11 | 42.94324 | -87.90543 | 687 ft | 14 kts | 72° |
| 2026-04-28 20:12 | 42.94353 | -87.90423 | 687 ft | 13 kts | 71° |
| 2026-04-28 20:12 | 42.94381 | -87.90309 | 683 ft | 13 kts | 71° |
| 2026-04-28 20:12 | 42.94438 | -87.90234 | 683 ft | 12 kts | 14° |
| 2026-04-28 20:12 | 42.94472 | -87.90176 | 683 ft | 12 kts | 74° |
| 2026-04-28 20:13 | 42.94508 | -87.90025 | 684 ft | 14 kts | 71° |
| 2026-04-28 20:13 | 42.94547 | -87.89887 | 681 ft | 17 kts | 63° |
| 2026-04-28 20:13 | 42.94615 | -87.89761 | 686 ft | 16 kts | 33° |
| 2026-04-28 20:13 | 42.94723 | -87.89730 | 683 ft | 15 kts | 7° |
| 2026-04-28 20:14 | 42.94828 | -87.89713 | 683 ft | 15 kts | 7° |
| 2026-04-28 20:14 | 42.94928 | -87.89714 | 683 ft | 14 kts | 339° |
| 2026-04-28 20:14 | 42.95005 | -87.89793 | 680 ft | 14 kts | 334° |
| 2026-04-28 20:14 | 42.95089 | -87.89868 | 687 ft | 11 kts | 313° |
| 2026-04-28 20:15 | 42.95104 | -87.89952 | 682 ft | 8 kts | 233° |
| 2026-04-28 20:15 | 42.95078 | -87.89995 | 687 ft | 0 kts | 230° |